Time;durP1;ratioP1;P1;durP2;ratioP2;P2;SDS_P1;SDS_P2;PMS_P1;PMS_P2;Temp;Humidity;BMP_temperature;BMP_pressure;BME280_temperature;BME280_humidity;BME280_pressure;Samples;Min_cycle;Max_cycle;Signal;HPM_P1;HPM_P2
2023/11/16 00:01:05;;;;;;;7.63;3.92;;;8.60;99.90;;;;;;12596550;28;20048;-34
2023/11/16 00:07:33;;;;;;;9.55;4.00;;;8.50;99.90;;;;;;12592094;28;20382;-34
2023/11/16 00:14:01;;;;;;;6.80;3.47;;;8.60;99.90;;;;;;12575775;28;20051;-35
2023/11/16 00:20:30;;;;;;;6.93;3.90;;;8.50;99.90;;;;;;12591845;28;20186;-34
2023/11/16 00:26:54;;;;;;;9.38;4.13;;;8.50;99.90;;;;;;12567462;28;20551;-35
2023/11/16 00:33:25;;;;;;;8.45;3.92;;;8.40;99.90;;;;;;12584966;28;20048;-34
2023/11/16 00:40:17;;;;;;;9.15;4.30;;;8.40;99.90;;;;;;12587437;28;20056;-34
2023/11/16 00:47:08;;;;;;;9.65;3.97;;;8.40;99.90;;;;;;12586918;28;20086;-34
2023/11/16 00:53:44;;;;;;;9.20;4.07;;;8.30;99.90;;;;;;12588751;28;20136;-34
2023/11/16 01:00:10;;;;;;;9.18;4.15;;;8.30;99.90;;;;;;12581519;28;20053;-34
2023/11/16 01:06:18;;;;;;;7.43;4.03;;;8.30;99.90;;;;;;12588552;28;20067;-34
2023/11/16 01:12:36;;;;;;;10.20;4.47;;;8.30;99.90;;;;;;12586843;28;20074;-35
2023/11/16 01:19:16;;;;;;;7.18;3.78;;;8.30;99.90;;;;;;12588424;28;20064;-34
2023/11/16 01:25:54;;;;;;;8.00;4.20;;;8.30;99.90;;;;;;12573424;28;20044;-34
2023/11/16 01:32:20;;;;;;;8.10;3.78;;;8.30;99.90;;;;;;12587632;28;20190;-34
2023/11/16 01:38:47;;;;;;;10.95;3.78;;;8.30;99.90;;;;;;12575413;28;20143;-34
2023/11/16 01:45:28;;;;;;;11.00;4.00;;;8.30;99.90;;;;;;12573970;28;20049;-34
2023/11/16 01:51:57;;;;;;;9.10;4.05;;;8.40;99.90;;;;;;12587310;28;20463;-35
2023/11/16 01:58:24;;;;;;;6.85;3.90;;;8.40;99.90;;;;;;12587218;28;20048;-35
2023/11/16 02:04:49;;;;;;;8.77;3.80;;;8.50;99.90;;;;;;12586833;28;20127;-34
2023/11/16 02:11:05;;;;;;;8.48;3.40;;;8.60;99.90;;;;;;12582798;28;20056;-34
2023/11/16 02:17:35;;;;;;;7.97;4.32;;;8.50;99.90;;;;;;12587689;28;20502;-34
2023/11/16 02:24:01;;;;;;;7.93;3.42;;;8.50;99.90;;;;;;12587190;28;20389;-35
2023/11/16 02:30:22;;;;;;;6.18;3.08;;;8.40;99.90;;;;;;12584983;28;20109;-35
2023/11/16 02:36:47;;;;;;;9.10;2.83;;;8.40;99.90;;;;;;12580100;28;20045;-35
2023/11/16 02:43:14;;;;;;;6.53;3.00;;;8.30;99.90;;;;;;12584453;28;20477;-34
2023/11/16 02:49:52;;;;;;;7.07;3.35;;;8.30;99.90;;;;;;12568555;28;20045;-35
2023/11/16 02:56:16;;;;;;;13.10;3.58;;;8.30;99.90;;;;;;12585534;28;20398;-36
2023/11/16 03:02:42;;;;;;;14.13;3.35;;;8.20;99.90;;;;;;12569504;28;20094;-34
2023/11/16 03:09:04;;;;;;;7.80;3.03;;;8.20;99.90;;;;;;12580224;28;20056;-35
2023/11/16 03:15:28;;;;;;;7.85;2.63;;;8.30;99.90;;;;;;12583663;28;20051;-35
2023/11/16 03:21:49;;;;;;;3.97;2.30;;;8.20;99.90;;;;;;12523585;28;20565;-35
2023/11/16 03:28:14;;;;;;;5.82;2.80;;;8.20;99.90;;;;;;12529993;28;20056;-35
2023/11/16 03:34:31;;;;;;;8.07;2.88;;;8.30;99.90;;;;;;12539290;28;20049;-35
2023/11/16 03:40:52;;;;;;;6.60;2.58;;;8.30;99.90;;;;;;12525812;28;20045;-34
2023/11/16 03:47:09;;;;;;;7.68;2.10;;;8.40;99.90;;;;;;12546402;28;20057;-34
2023/11/16 03:53:37;;;;;;;5.22;2.33;;;8.30;99.90;;;;;;12542082;28;20049;-34
2023/11/16 03:59:53;;;;;;;5.18;1.60;;;8.30;99.90;;;;;;12518598;28;20413;-34
2023/11/16 04:06:29;;;;;;;4.68;1.30;;;8.20;99.90;;;;;;12525105;28;20075;-35
2023/11/16 04:13:03;;;;;;;2.85;1.15;;;8.20;99.90;;;;;;12544401;28;20412;-35
2023/11/16 04:19:31;;;;;;;5.57;1.63;;;8.20;99.90;;;;;;12558423;28;20060;-35
2023/11/16 04:25:54;;;;;;;4.05;1.20;;;8.20;99.90;;;;;;12578915;28;20049;-35
2023/11/16 04:32:27;;;;;;;5.53;1.23;;;8.20;99.90;;;;;;12590199;28;20060;-35
2023/11/16 04:39:12;;;;;;;6.22;1.38;;;8.10;99.90;;;;;;12585996;28;20048;-35
2023/11/16 04:45:38;;;;;;;3.13;1.08;;;8.10;99.90;;;;;;12592050;28;20048;-34
2023/11/16 04:52:04;;;;;;;5.20;1.60;;;7.90;99.90;;;;;;12573716;28;20052;-35
2023/11/16 04:58:31;;;;;;;5.63;2.00;;;8.00;99.90;;;;;;12589307;28;20071;-35
2023/11/16 05:05:00;;;;;;;3.10;1.77;;;7.90;99.90;;;;;;12590542;28;20059;-35
2023/11/16 05:11:24;;;;;;;4.13;1.92;;;8.00;99.90;;;;;;12588225;28;20097;-35
2023/11/16 05:17:46;;;;;;;6.45;1.92;;;8.00;99.90;;;;;;12571848;28;20080;-35
2023/11/16 05:24:03;;;;;;;2.40;1.10;;;8.00;99.90;;;;;;12569623;28;20504;-35
2023/11/16 05:30:37;;;;;;;3.47;1.60;;;8.10;99.90;;;;;;12574726;28;20377;-34
2023/11/16 05:37:12;;;;;;;6.38;2.00;;;8.00;99.90;;;;;;12575953;28;20523;-35
2023/11/16 05:43:28;;;;;;;5.07;1.75;;;8.10;99.90;;;;;;12567465;28;20044;-35
2023/11/16 05:49:47;;;;;;;4.75;1.95;;;8.00;99.90;;;;;;12583108;28;20124;-35
2023/11/16 05:56:18;;;;;;;6.25;2.15;;;7.90;99.90;;;;;;12560488;28;20049;-34
2023/11/16 06:02:48;;;;;;;4.32;1.45;;;7.80;99.90;;;;;;12586082;28;20044;-35
2023/11/16 06:09:02;;;;;;;3.63;1.48;;;7.60;99.90;;;;;;12586045;28;20059;-35
2023/11/16 06:15:21;;;;;;;4.18;1.38;;;7.60;99.90;;;;;;12562249;28;20424;-35
2023/11/16 06:21:40;;;;;;;3.80;1.20;;;7.40;99.90;;;;;;12586605;28;20712;-35
2023/11/16 06:28:10;;;;;;;3.65;1.30;;;7.30;99.90;;;;;;12589811;28;20051;-35
2023/11/16 06:34:20;;;;;;;2.10;1.05;;;7.30;99.90;;;;;;12587285;28;20075;-35
2023/11/16 06:40:29;;;;;;;2.97;0.93;;;7.40;99.90;;;;;;12586527;28;20048;-35
2023/11/16 06:46:44;;;;;;;1.65;0.82;;;7.50;99.90;;;;;;12583774;28;20055;-35
2023/11/16 06:53:01;;;;;;;2.28;0.80;;;7.40;99.90;;;;;;12584993;28;20056;-34
2023/11/16 06:59:19;;;;;;;5.55;1.45;;;7.30;99.90;;;;;;12586048;28;20052;-34
2023/11/16 07:05:57;;;;;;;4.60;0.80;;;7.30;99.90;;;;;;12581773;28;20083;-35
2023/11/16 07:12:32;;;;;;;5.20;1.02;;;7.30;99.90;;;;;;12583599;28;20045;-35
2023/11/16 07:18:50;;;;;;;3.15;0.95;;;7.30;99.90;;;;;;12559583;28;20056;-35
2023/11/16 07:25:16;;;;;;;2.95;0.77;;;7.40;99.90;;;;;;12584896;28;20587;-34
2023/11/16 07:31:37;;;;;;;4.70;0.80;;;7.40;99.90;;;;;;12586471;28;20110;-35
2023/11/16 07:38:00;;;;;;;3.78;0.68;;;7.30;99.90;;;;;;12584537;28;20052;-35
2023/11/16 07:44:15;;;;;;;4.20;1.20;;;7.30;99.90;;;;;;12579642;28;20049;-35
2023/11/16 07:50:35;;;;;;;6.30;1.02;;;7.30;99.90;;;;;;12579514;28;20064;-34
2023/11/16 07:57:01;;;;;;;3.38;0.88;;;7.20;99.90;;;;;;12580405;28;20045;-35
2023/11/16 08:09:46;;;;;;;2.90;1.02;;;7.00;99.90;;;;;;12589999;28;20051;-35
2023/11/16 08:16:04;;;;;;;7.22;1.35;;;7.20;99.90;;;;;;12589845;27;20052;-35
2023/11/16 08:22:26;;;;;;;3.13;1.20;;;7.40;99.90;;;;;;12526836;28;20041;-35
2023/11/16 08:29:04;;;;;;;4.50;1.23;;;7.30;99.90;;;;;;12529936;28;20045;-35
2023/11/16 08:35:30;;;;;;;7.32;1.70;;;7.60;99.90;;;;;;12524480;28;20140;-35
2023/11/16 08:41:53;;;;;;;3.83;1.00;;;7.90;99.90;;;;;;12530712;28;20045;-34
2023/11/16 08:48:16;;;;;;;6.25;1.42;;;7.70;99.90;;;;;;12518988;28;20072;-35
2023/11/16 08:54:29;;;;;;;5.25;1.65;;;7.70;99.90;;;;;;12522230;28;20057;-35
2023/11/16 09:00:47;;;;;;;2.83;1.30;;;7.70;99.90;;;;;;12524079;28;20053;-35
2023/11/16 09:07:13;;;;;;;5.68;1.58;;;7.70;99.90;;;;;;12521391;28;20045;-35
2023/11/16 09:13:24;;;;;;;2.17;1.40;;;7.80;99.90;;;;;;12508307;28;20049;-35
2023/11/16 09:19:39;;;;;;;4.90;1.30;;;7.90;99.90;;;;;;12564201;28;20053;-35
2023/11/16 09:25:59;;;;;;;5.68;1.38;;;7.90;99.90;;;;;;12592144;28;20408;-35
2023/11/16 09:32:16;;;;;;;7.68;1.02;;;7.90;99.90;;;;;;12588148;28;20507;-34
2023/11/16 09:38:32;;;;;;;3.38;0.90;;;7.90;99.90;;;;;;12586086;28;20076;-35
2023/11/16 09:44:48;;;;;;;2.95;1.10;;;8.00;99.90;;;;;;12590387;28;20445;-35
2023/11/16 09:50:58;;;;;;;1.05;0.70;;;7.80;99.90;;;;;;12586430;28;20117;-35
2023/11/16 09:57:19;;;;;;;2.80;0.98;;;8.20;99.90;;;;;;12588189;28;20055;-35
2023/11/16 10:03:40;;;;;;;1.80;0.90;;;8.40;99.90;;;;;;12571769;28;20053;-36
2023/11/16 10:10:14;;;;;;;2.80;0.70;;;8.60;99.90;;;;;;12586169;28;20052;-36
2023/11/16 10:16:31;;;;;;;1.77;0.77;;;8.80;99.90;;;;;;12581882;28;20048;-36
2023/11/16 10:22:41;;;;;;;1.55;0.57;;;8.70;99.90;;;;;;12578885;28;20144;-36
2023/11/16 10:28:55;;;;;;;2.78;0.60;;;8.50;99.90;;;;;;12578795;28;20053;-35
2023/11/16 10:35:09;;;;;;;2.60;0.93;;;8.60;99.90;;;;;;12559948;28;20056;-36
2023/11/16 10:41:27;;;;;;;3.03;0.95;;;8.90;99.90;;;;;;12584169;28;20484;-35
2023/11/16 10:47:43;;;;;;;2.85;0.75;;;9.40;99.90;;;;;;12577406;28;20055;-35
2023/11/16 10:53:59;;;;;;;0.98;0.57;;;9.60;99.90;;;;;;12581782;28;20052;-35
2023/11/16 11:00:16;;;;;;;1.80;0.50;;;9.80;99.90;;;;;;12566864;28;20052;-35
2023/11/16 11:06:28;;;;;;;0.77;0.40;;;9.00;99.90;;;;;;12575019;28;20068;-35
2023/11/16 11:12:46;;;;;;;2.17;0.60;;;9.40;99.90;;;;;;12584442;28;20109;-35
2023/11/16 11:18:57;;;;;;;3.10;0.60;;;9.30;99.90;;;;;;12583361;28;20122;-35
2023/11/16 11:25:12;;;;;;;6.22;0.80;;;9.30;99.90;;;;;;12575412;28;20131;-34
2023/11/16 11:31:39;;;;;;;1.10;0.50;;;9.40;99.90;;;;;;12581320;28;20045;-34
2023/11/16 11:37:55;;;;;;;2.08;0.70;;;9.60;99.90;;;;;;12576454;28;20044;-34
2023/11/16 11:44:13;;;;;;;1.50;0.98;;;9.40;99.90;;;;;;12582970;28;20045;-34
2023/11/16 11:50:34;;;;;;;1.80;0.70;;;9.60;99.90;;;;;;12561976;28;20095;-35
2023/11/16 11:56:46;;;;;;;2.15;0.52;;;9.10;99.90;;;;;;12581879;28;20048;-34
2023/11/16 12:02:54;;;;;;;3.28;0.80;;;8.90;99.90;;;;;;12576835;28;20056;-34
2023/11/16 12:09:03;;;;;;;1.45;0.60;;;8.90;99.90;;;;;;12579701;28;20052;-34
2023/11/16 12:15:13;;;;;;;1.90;0.60;;;8.90;99.90;;;;;;12580473;28;20547;-33
2023/11/16 12:21:44;;;;;;;0.80;0.70;;;9.20;99.90;;;;;;12579160;28;20052;-34
2023/11/16 12:27:56;;;;;;;2.05;0.65;;;9.20;99.90;;;;;;12578455;28;20054;-34
2023/11/16 12:34:10;;;;;;;2.67;0.63;;;9.00;99.90;;;;;;12565065;28;20060;-34
2023/11/16 12:40:26;;;;;;;1.58;0.70;;;9.30;99.90;;;;;;12583766;28;20431;-37
2023/11/16 12:46:35;;;;;;;0.93;0.40;;;9.40;99.90;;;;;;12579631;28;20062;-33
2023/11/16 12:52:50;;;;;;;1.13;0.60;;;9.40;99.90;;;;;;12583435;28;20041;-34
2023/11/16 12:59:02;;;;;;;0.80;0.40;;;9.40;99.90;;;;;;12587564;28;20044;-34
2023/11/16 13:05:17;;;;;;;0.32;0.32;;;9.40;99.90;;;;;;12587380;28;20048;-34
2023/11/16 13:11:37;;;;;;;0.57;0.28;;;9.20;99.90;;;;;;12588741;28;20059;-34
2023/11/16 13:17:52;;;;;;;0.28;0.25;;;9.10;99.90;;;;;;12586878;28;20053;-35
2023/11/16 13:24:06;;;;;;;1.35;0.40;;;9.10;99.90;;;;;;12582889;28;20041;-34
2023/11/16 13:30:16;;;;;;;1.05;0.40;;;9.00;99.90;;;;;;12584804;28;20488;-34
2023/11/16 13:36:30;;;;;;;2.28;0.50;;;9.00;99.90;;;;;;12583195;28;20055;-34
2023/11/16 13:42:52;;;;;;;3.40;0.40;;;8.90;99.90;;;;;;12584608;28;20075;-34
2023/11/16 13:49:04;;;;;;;1.48;0.43;;;8.90;99.90;;;;;;12566021;28;20091;-34
2023/11/16 13:55:14;;;;;;;0.75;0.32;;;8.80;99.90;;;;;;12579260;28;20052;-34
2023/11/16 14:01:30;;;;;;;2.65;0.70;;;8.50;99.90;;;;;;12579789;28;20131;-34
2023/11/16 14:07:43;;;;;;;1.60;0.43;;;8.60;99.90;;;;;;12570566;28;20052;-34
2023/11/16 14:14:02;;;;;;;3.40;0.70;;;8.40;99.90;;;;;;12564830;28;20051;-34
2023/11/16 14:20:27;;;;;;;1.42;0.60;;;8.00;99.90;;;;;;12585757;28;20052;-34
2023/11/16 14:26:46;;;;;;;2.40;0.80;;;8.10;99.90;;;;;;12579610;28;20121;-34
2023/11/16 14:33:13;;;;;;;2.15;0.80;;;8.00;99.90;;;;;;12584977;28;20044;-34
2023/11/16 14:39:35;;;;;;;2.03;0.60;;;7.90;99.90;;;;;;12582218;28;20447;-34
2023/11/16 14:45:55;;;;;;;1.85;0.52;;;8.00;99.90;;;;;;12587292;28;20496;-35
2023/11/16 14:52:18;;;;;;;0.40;0.40;;;7.80;99.90;;;;;;12583706;28;20109;-35
2023/11/16 14:58:36;;;;;;;1.20;0.70;;;7.90;99.90;;;;;;12584601;28;20520;-35
2023/11/16 15:04:55;;;;;;;1.35;0.55;;;7.90;99.90;;;;;;12561299;28;20049;-35
2023/11/16 15:11:17;;;;;;;9.48;1.30;;;7.80;99.90;;;;;;12581939;28;20052;-35
2023/11/16 15:17:40;;;;;;;3.47;1.50;;;7.80;99.90;;;;;;12580779;28;20412;-34
2023/11/16 15:24:06;;;;;;;2.35;1.08;;;7.60;99.90;;;;;;12580763;28;20108;-34
2023/11/16 15:30:25;;;;;;;4.15;0.80;;;7.60;99.90;;;;;;12584286;28;20078;-35
2023/11/16 15:36:59;;;;;;;1.30;0.70;;;7.20;99.90;;;;;;12583172;28;20048;-35
2023/11/16 15:43:35;;;;;;;1.48;0.70;;;7.40;99.90;;;;;;12564859;28;20068;-34
2023/11/16 15:49:53;;;;;;;2.22;0.70;;;7.40;99.90;;;;;;12585515;28;20052;-34
2023/11/16 15:56:12;;;;;;;1.33;0.65;;;7.20;99.90;;;;;;12585126;28;20048;-34
2023/11/16 16:02:33;;;;;;;1.67;0.70;;;7.20;99.90;;;;;;12583037;28;20049;-34
2023/11/16 16:08:52;;;;;;;2.13;0.90;;;6.90;99.90;;;;;;12568929;28;20049;-34
2023/11/16 16:15:06;;;;;;;2.05;0.93;;;6.90;99.90;;;;;;12575043;28;20068;-35
2023/11/16 16:21:13;;;;;;;2.47;1.63;;;7.00;99.90;;;;;;12551939;28;20049;-35
2023/11/16 16:27:17;;;;;;;2.30;1.20;;;6.80;99.90;;;;;;12575050;28;20049;-34
2023/11/16 16:33:19;;;;;;;2.90;1.10;;;6.80;99.90;;;;;;12556694;28;20161;-35
2023/11/16 16:39:24;;;;;;;4.40;1.20;;;6.50;99.90;;;;;;12578416;28;20163;-35
2023/11/16 16:45:26;;;;;;;5.38;1.65;;;6.30;99.90;;;;;;12571353;28;20416;-35
2023/11/16 16:51:29;;;;;;;3.15;1.83;;;6.10;99.90;;;;;;12576667;28;20481;-34
2023/11/16 16:57:31;;;;;;;4.25;2.15;;;6.10;99.90;;;;;;12558809;28;20057;-35
2023/11/16 17:03:33;;;;;;;5.25;2.75;;;6.20;99.90;;;;;;12574101;28;20044;-34
2023/11/16 17:09:37;;;;;;;4.70;2.10;;;6.30;99.90;;;;;;12571619;28;20063;-35
2023/11/16 17:15:44;;;;;;;7.18;2.45;;;6.40;99.90;;;;;;12579082;28;20946;-34
2023/11/16 17:21:52;;;;;;;5.97;2.33;;;6.30;99.90;;;;;;12577432;28;20628;-36
2023/11/16 17:28:00;;;;;;;6.60;2.17;;;6.10;99.90;;;;;;12573877;28;20044;-35
2023/11/16 17:34:10;;;;;;;6.78;2.50;;;6.20;99.90;;;;;;12574239;28;20044;-34
2023/11/16 17:40:25;;;;;;;5.55;2.03;;;6.20;99.90;;;;;;12570933;28;20568;-34
2023/11/16 17:46:29;;;;;;;4.68;2.25;;;6.10;99.90;;;;;;12567778;28;20052;-35
2023/11/16 17:52:32;;;;;;;7.45;3.25;;;5.90;99.90;;;;;;12568254;28;20139;-34
2023/11/16 17:58:38;;;;;;;7.45;3.63;;;5.70;99.90;;;;;;12571725;28;20052;-34
2023/11/16 18:04:44;;;;;;;;;;;5.80;99.90;;;;;;12555963;28;20047;-35
2023/11/16 18:10:59;;;;;;;5.57;3.10;;;5.90;99.90;;;;;;12579164;28;19968;-34
2023/11/16 18:17:07;;;;;;;4.97;2.50;;;5.80;99.90;;;;;;12574399;28;20194;-34
2023/11/16 18:23:17;;;;;;;4.57;2.50;;;5.70;99.90;;;;;;12562609;28;20485;-35
2023/11/16 18:29:32;;;;;;;4.15;2.58;;;5.70;99.90;;;;;;12575237;28;20060;-34
2023/11/16 18:35:41;;;;;;;5.10;2.80;;;5.70;99.90;;;;;;12575890;28;20496;-34
2023/11/16 18:41:49;;;;;;;5.18;2.45;;;5.90;99.90;;;;;;12574535;28;20055;-34
2023/11/16 18:48:12;;;;;;;4.68;2.55;;;6.00;99.90;;;;;;12576597;28;20040;-34
2023/11/16 18:54:24;;;;;;;4.70;2.60;;;5.80;99.90;;;;;;12565737;28;20045;-34
2023/11/16 19:00:38;;;;;;;;;;;5.70;99.90;;;;;;12578334;28;20056;-35
2023/11/16 19:06:50;;;;;;;4.82;2.50;;;5.50;99.90;;;;;;12579890;28;20489;-35
2023/11/16 19:12:57;;;;;;;7.53;3.22;;;5.60;99.90;;;;;;12581132;28;20086;-35
2023/11/16 19:19:06;;;;;;;6.53;2.92;;;5.60;99.90;;;;;;12579912;28;20056;-34
2023/11/16 19:25:22;;;;;;;6.38;2.88;;;5.60;99.90;;;;;;12563752;28;20071;-34
2023/11/16 19:31:34;;;;;;;6.43;3.25;;;5.70;99.90;;;;;;12579907;28;20525;-34
2023/11/16 19:37:53;;;;;;;7.53;2.85;;;5.80;99.90;;;;;;12579886;28;20056;-34
2023/11/16 19:44:24;;;;;;;6.57;3.35;;;5.80;99.90;;;;;;12568217;28;20052;-35
2023/11/16 19:50:50;;;;;;;6.72;3.45;;;5.80;99.90;;;;;;12583685;28;20447;-35
2023/11/16 19:57:13;;;;;;;4.05;2.13;;;5.50;99.90;;;;;;12583168;28;20396;-34
2023/11/16 20:03:43;;;;;;;5.35;2.40;;;5.40;99.90;;;;;;12593466;28;20396;-35
2023/11/16 20:10:15;;;;;;;7.60;2.50;;;5.40;99.90;;;;;;12593221;28;20044;-35
2023/11/16 20:16:40;;;;;;;4.38;2.40;;;5.50;99.90;;;;;;12589748;28;20500;-35
2023/11/16 20:23:06;;;;;;;5.00;2.28;;;5.40;99.90;;;;;;12590881;28;20099;-35
2023/11/16 20:29:37;;;;;;;5.93;2.15;;;5.30;99.90;;;;;;12592233;28;20062;-35
2023/11/16 20:36:01;;;;;;;6.07;2.08;;;4.90;99.90;;;;;;12568774;28;20064;-35
2023/11/16 20:42:10;;;;;;;6.45;2.30;;;4.80;99.90;;;;;;12567276;28;20590;-34
2023/11/16 20:48:32;;;;;;;3.80;1.90;;;4.80;99.90;;;;;;12587044;28;20044;-35
2023/11/16 20:55:10;;;;;;;3.47;1.90;;;4.90;99.90;;;;;;12567687;28;20045;-35
2023/11/16 21:01:38;;;;;;;3.90;2.00;;;4.50;99.90;;;;;;12588279;28;20040;-34
2023/11/16 21:08:00;;;;;;;3.47;1.73;;;4.50;99.90;;;;;;12588524;28;20044;-34
2023/11/16 21:14:18;;;;;;;2.72;1.60;;;4.40;99.90;;;;;;12571175;28;20090;-35
2023/11/16 21:20:46;;;;;;;3.10;1.65;;;4.40;99.90;;;;;;12584262;28;20052;-35
2023/11/16 21:27:17;;;;;;;6.18;1.90;;;4.50;99.90;;;;;;12583252;28;20036;-35
2023/11/16 21:33:36;;;;;;;3.28;1.60;;;4.40;99.90;;;;;;12569527;28;20508;-35
2023/11/16 21:40:05;;;;;;;3.38;1.90;;;4.70;99.90;;;;;;12565850;28;20139;-35
2023/11/16 21:46:17;;;;;;;4.00;2.10;;;4.70;99.90;;;;;;12589853;28;20056;-35
2023/11/16 21:52:28;;;;;;;6.72;2.08;;;4.90;99.90;;;;;;12584045;28;20099;-35
2023/11/16 21:58:31;;;;;;;3.63;1.90;;;4.90;99.90;;;;;;12560475;28;20048;-34
2023/11/16 22:04:35;;;;;;;3.50;1.60;;;5.00;99.90;;;;;;12546935;28;20048;-34
2023/11/16 22:10:40;;;;;;;3.65;1.83;;;5.10;99.90;;;;;;12581073;28;20420;-34
2023/11/16 22:16:47;;;;;;;3.92;2.13;;;5.10;99.90;;;;;;12574262;28;20450;-35
2023/11/16 22:22:57;;;;;;;3.42;1.60;;;5.10;99.90;;;;;;12577050;28;20136;-34
2023/11/16 22:29:05;;;;;;;3.17;2.00;;;5.00;99.90;;;;;;12579414;28;20053;-34
2023/11/16 22:35:23;;;;;;;3.42;1.80;;;5.00;99.90;;;;;;12578540;28;20048;-34
2023/11/16 22:41:35;;;;;;;3.50;2.03;;;5.00;99.90;;;;;;12578550;28;20052;-34
2023/11/16 22:47:41;;;;;;;3.60;2.03;;;5.00;99.90;;;;;;12555285;28;20110;-34
2023/11/16 22:53:43;;;;;;;4.00;2.10;;;4.90;99.90;;;;;;12576079;28;20128;-34
2023/11/16 22:59:46;;;;;;;3.70;2.20;;;4.70;99.90;;;;;;12576262;28;20079;-34
2023/11/16 23:05:52;;;;;;;5.93;2.45;;;4.70;99.90;;;;;;12576763;28;20093;-34
2023/11/16 23:12:07;;;;;;;5.03;3.05;;;4.60;99.90;;;;;;12578627;28;20412;-34
2023/11/16 23:18:20;;;;;;;6.32;4.32;;;4.40;99.90;;;;;;12582269;28;20040;-34
2023/11/16 23:24:31;;;;;;;7.43;3.80;;;4.30;99.90;;;;;;12582021;28;20056;-35
2023/11/16 23:30:45;;;;;;;5.45;3.38;;;4.20;99.90;;;;;;12566307;28;20052;-34
2023/11/16 23:36:55;;;;;;;5.50;3.00;;;4.20;99.90;;;;;;12564103;28;20052;-34
2023/11/16 23:43:01;;;;;;;5.82;2.58;;;4.40;99.90;;;;;;12579135;28;20040;-34
2023/11/16 23:49:10;;;;;;;5.32;2.88;;;4.60;99.90;;;;;;12578707;28;20052;-34
2023/11/16 23:55:30;;;;;;;3.78;2.20;;;4.60;99.90;;;;;;12561363;28;20040;-34
